sensor_id;sensor_type;location;lat;lon;timestamp;P1;durP1;ratioP1;P2;durP2;ratioP2
74510;SDS011;62991;50.040;18.400;2022-11-15T00:00:34;43.75;;;15.10;;
74510;SDS011;62991;50.040;18.400;2022-11-15T00:03:35;54.83;;;16.08;;
74510;SDS011;62991;50.040;18.400;2022-11-15T00:06:35;46.63;;;16.95;;
74510;SDS011;62991;50.040;18.400;2022-11-15T00:09:36;49.60;;;17.65;;
74510;SDS011;62991;50.040;18.400;2022-11-15T00:12:37;41.85;;;15.77;;
74510;SDS011;62991;50.040;18.400;2022-11-15T00:15:38;43.13;;;15.88;;
74510;SDS011;62991;50.040;18.400;2022-11-15T00:18:39;43.95;;;16.38;;
74510;SDS011;62991;50.040;18.400;2022-11-15T00:21:40;45.25;;;16.45;;
74510;SDS011;62991;50.040;18.400;2022-11-15T00:24:41;45.30;;;15.00;;
74510;SDS011;62991;50.040;18.400;2022-11-15T00:27:42;33.90;;;14.15;;
74510;SDS011;62991;50.040;18.400;2022-11-15T00:30:43;35.95;;;15.15;;
74510;SDS011;62991;50.040;18.400;2022-11-15T00:33:44;47.17;;;15.40;;
74510;SDS011;62991;50.040;18.400;2022-11-15T00:36:45;40.20;;;14.73;;
74510;SDS011;62991;50.040;18.400;2022-11-15T00:39:45;36.67;;;13.27;;
74510;SDS011;62991;50.040;18.400;2022-11-15T00:42:46;36.75;;;12.30;;
74510;SDS011;62991;50.040;18.400;2022-11-15T00:45:47;33.67;;;12.35;;
74510;SDS011;62991;50.040;18.400;2022-11-15T00:48:48;21.45;;;9.32;;
74510;SDS011;62991;50.040;18.400;2022-11-15T00:51:48;24.92;;;8.77;;
74510;SDS011;62991;50.040;18.400;2022-11-15T00:54:49;29.33;;;8.73;;
74510;SDS011;62991;50.040;18.400;2022-11-15T00:57:50;21.48;;;9.60;;
74510;SDS011;62991;50.040;18.400;2022-11-15T01:00:50;25.23;;;9.65;;
74510;SDS011;62991;50.040;18.400;2022-11-15T01:03:51;23.27;;;9.23;;
74510;SDS011;62991;50.040;18.400;2022-11-15T01:06:52;25.27;;;9.32;;
74510;SDS011;62991;50.040;18.400;2022-11-15T01:09:53;41.28;;;11.18;;
74510;SDS011;62991;50.040;18.400;2022-11-15T01:12:54;21.80;;;8.55;;
74510;SDS011;62991;50.040;18.400;2022-11-15T01:15:54;19.83;;;9.40;;
74510;SDS011;62991;50.040;18.400;2022-11-15T01:18:55;23.38;;;10.35;;
74510;SDS011;62991;50.040;18.400;2022-11-15T01:21:56;22.08;;;10.00;;
74510;SDS011;62991;50.040;18.400;2022-11-15T01:24:57;30.02;;;11.15;;
74510;SDS011;62991;50.040;18.400;2022-11-15T01:27:57;24.98;;;9.93;;
74510;SDS011;62991;50.040;18.400;2022-11-15T01:30:59;21.50;;;9.68;;
74510;SDS011;62991;50.040;18.400;2022-11-15T01:34:01;26.23;;;9.98;;
74510;SDS011;62991;50.040;18.400;2022-11-15T01:37:01;17.20;;;7.63;;
74510;SDS011;62991;50.040;18.400;2022-11-15T01:40:02;25.08;;;9.80;;
74510;SDS011;62991;50.040;18.400;2022-11-15T01:46:40;25.33;;;9.18;;
74510;SDS011;62991;50.040;18.400;2022-11-15T01:49:47;23.65;;;8.75;;
74510;SDS011;62991;50.040;18.400;2022-11-15T01:52:51;25.50;;;9.00;;
74510;SDS011;62991;50.040;18.400;2022-11-15T01:55:52;17.25;;;7.72;;
74510;SDS011;62991;50.040;18.400;2022-11-15T01:58:55;19.40;;;7.43;;
74510;SDS011;62991;50.040;18.400;2022-11-15T02:01:58;19.38;;;8.90;;
74510;SDS011;62991;50.040;18.400;2022-11-15T02:04:59;15.88;;;6.60;;
74510;SDS011;62991;50.040;18.400;2022-11-15T02:08:00;20.73;;;8.30;;
74510;SDS011;62991;50.040;18.400;2022-11-15T02:11:01;20.88;;;7.15;;
74510;SDS011;62991;50.040;18.400;2022-11-15T02:14:07;21.80;;;8.48;;
74510;SDS011;62991;50.040;18.400;2022-11-15T02:17:17;19.13;;;7.45;;
74510;SDS011;62991;50.040;18.400;2022-11-15T02:20:32;19.60;;;8.20;;
74510;SDS011;62991;50.040;18.400;2022-11-15T02:23:50;21.77;;;8.18;;
74510;SDS011;62991;50.040;18.400;2022-11-15T02:30:57;21.83;;;8.75;;
74510;SDS011;62991;50.040;18.400;2022-11-15T02:37:14;18.95;;;8.00;;
74510;SDS011;62991;50.040;18.400;2022-11-15T02:40:23;16.33;;;8.02;;
74510;SDS011;62991;50.040;18.400;2022-11-15T02:46:59;22.45;;;8.02;;
74510;SDS011;62991;50.040;18.400;2022-11-15T02:50:16;18.15;;;7.53;;
74510;SDS011;62991;50.040;18.400;2022-11-15T02:53:20;19.83;;;7.80;;
74510;SDS011;62991;50.040;18.400;2022-11-15T02:56:24;18.73;;;7.82;;
74510;SDS011;62991;50.040;18.400;2022-11-15T02:59:33;15.45;;;7.45;;
74510;SDS011;62991;50.040;18.400;2022-11-15T03:06:37;22.45;;;8.10;;
74510;SDS011;62991;50.040;18.400;2022-11-15T03:09:54;16.40;;;7.13;;
74510;SDS011;62991;50.040;18.400;2022-11-15T03:13:24;22.45;;;8.20;;
74510;SDS011;62991;50.040;18.400;2022-11-15T03:16:28;21.38;;;8.30;;
74510;SDS011;62991;50.040;18.400;2022-11-15T03:19:44;19.65;;;8.75;;
74510;SDS011;62991;50.040;18.400;2022-11-15T03:22:47;18.80;;;7.88;;
74510;SDS011;62991;50.040;18.400;2022-11-15T03:25:50;19.88;;;8.40;;
74510;SDS011;62991;50.040;18.400;2022-11-15T03:28:52;63.92;;;18.65;;
74510;SDS011;62991;50.040;18.400;2022-11-15T03:32:06;67.75;;;18.85;;
74510;SDS011;62991;50.040;18.400;2022-11-15T03:35:15;81.53;;;24.38;;
74510;SDS011;62991;50.040;18.400;2022-11-15T03:38:26;32.22;;;11.80;;
74510;SDS011;62991;50.040;18.400;2022-11-15T03:41:31;35.88;;;17.02;;
74510;SDS011;62991;50.040;18.400;2022-11-15T03:45:44;45.25;;;21.13;;
74510;SDS011;62991;50.040;18.400;2022-11-15T03:48:35;46.40;;;20.80;;
74510;SDS011;62991;50.040;18.400;2022-11-15T03:51:40;41.22;;;20.17;;
74510;SDS011;62991;50.040;18.400;2022-11-15T03:54:51;43.08;;;19.35;;
74510;SDS011;62991;50.040;18.400;2022-11-15T03:57:54;36.72;;;17.13;;
74510;SDS011;62991;50.040;18.400;2022-11-15T04:00:57;29.88;;;12.55;;
74510;SDS011;62991;50.040;18.400;2022-11-15T04:03:59;30.77;;;13.80;;
74510;SDS011;62991;50.040;18.400;2022-11-15T04:07:00;27.13;;;13.95;;
74510;SDS011;62991;50.040;18.400;2022-11-15T04:10:00;35.63;;;16.52;;
74510;SDS011;62991;50.040;18.400;2022-11-15T04:13:04;50.00;;;21.67;;
74510;SDS011;62991;50.040;18.400;2022-11-15T04:16:04;31.40;;;15.38;;
74510;SDS011;62991;50.040;18.400;2022-11-15T04:19:05;30.67;;;15.60;;
74510;SDS011;62991;50.040;18.400;2022-11-15T04:22:25;27.80;;;12.38;;
74510;SDS011;62991;50.040;18.400;2022-11-15T04:25:44;36.08;;;16.30;;
74510;SDS011;62991;50.040;18.400;2022-11-15T04:28:45;31.48;;;15.23;;
74510;SDS011;62991;50.040;18.400;2022-11-15T04:32:06;25.35;;;11.98;;
74510;SDS011;62991;50.040;18.400;2022-11-15T04:35:07;36.15;;;16.30;;
74510;SDS011;62991;50.040;18.400;2022-11-15T04:38:08;32.88;;;14.18;;
74510;SDS011;62991;50.040;18.400;2022-11-15T04:41:10;24.10;;;12.70;;
74510;SDS011;62991;50.040;18.400;2022-11-15T04:44:11;24.45;;;11.45;;
74510;SDS011;62991;50.040;18.400;2022-11-15T04:47:11;21.70;;;8.95;;
74510;SDS011;62991;50.040;18.400;2022-11-15T04:50:13;25.85;;;10.65;;
74510;SDS011;62991;50.040;18.400;2022-11-15T04:53:14;21.48;;;10.25;;
74510;SDS011;62991;50.040;18.400;2022-11-15T04:56:15;19.13;;;8.20;;
74510;SDS011;62991;50.040;18.400;2022-11-15T04:59:16;27.55;;;12.35;;
74510;SDS011;62991;50.040;18.400;2022-11-15T05:02:16;46.35;;;18.65;;
74510;SDS011;62991;50.040;18.400;2022-11-15T05:05:17;62.63;;;23.08;;
74510;SDS011;62991;50.040;18.400;2022-11-15T05:08:18;39.05;;;16.95;;
74510;SDS011;62991;50.040;18.400;2022-11-15T05:11:19;26.65;;;11.70;;
74510;SDS011;62991;50.040;18.400;2022-11-15T05:14:20;28.25;;;12.32;;
74510;SDS011;62991;50.040;18.400;2022-11-15T05:17:21;26.85;;;11.07;;
74510;SDS011;62991;50.040;18.400;2022-11-15T05:20:22;32.22;;;12.32;;
74510;SDS011;62991;50.040;18.400;2022-11-15T05:23:22;19.63;;;9.45;;
74510;SDS011;62991;50.040;18.400;2022-11-15T05:26:23;18.77;;;10.15;;
74510;SDS011;62991;50.040;18.400;2022-11-15T05:29:24;22.90;;;10.38;;
74510;SDS011;62991;50.040;18.400;2022-11-15T05:32:24;21.42;;;9.35;;
74510;SDS011;62991;50.040;18.400;2022-11-15T05:35:29;26.20;;;10.00;;
74510;SDS011;62991;50.040;18.400;2022-11-15T05:38:41;25.05;;;10.02;;
74510;SDS011;62991;50.040;18.400;2022-11-15T05:41:49;39.30;;;17.58;;
74510;SDS011;62991;50.040;18.400;2022-11-15T05:44:53;32.85;;;12.50;;
74510;SDS011;62991;50.040;18.400;2022-11-15T05:47:54;32.22;;;13.60;;
74510;SDS011;62991;50.040;18.400;2022-11-15T05:50:57;33.00;;;12.90;;
74510;SDS011;62991;50.040;18.400;2022-11-15T05:53:58;37.40;;;14.68;;
74510;SDS011;62991;50.040;18.400;2022-11-15T05:57:01;34.92;;;15.00;;
74510;SDS011;62991;50.040;18.400;2022-11-15T06:00:03;40.83;;;14.05;;
74510;SDS011;62991;50.040;18.400;2022-11-15T06:03:04;35.40;;;14.35;;
74510;SDS011;62991;50.040;18.400;2022-11-15T06:06:05;22.55;;;10.40;;
74510;SDS011;62991;50.040;18.400;2022-11-15T06:09:06;32.08;;;12.57;;
74510;SDS011;62991;50.040;18.400;2022-11-15T06:12:06;32.95;;;11.80;;
74510;SDS011;62991;50.040;18.400;2022-11-15T06:15:07;30.88;;;13.02;;
74510;SDS011;62991;50.040;18.400;2022-11-15T06:18:08;36.60;;;14.63;;
74510;SDS011;62991;50.040;18.400;2022-11-15T06:21:09;53.33;;;18.15;;
74510;SDS011;62991;50.040;18.400;2022-11-15T06:24:10;53.22;;;20.50;;
74510;SDS011;62991;50.040;18.400;2022-11-15T06:27:10;56.20;;;21.00;;
74510;SDS011;62991;50.040;18.400;2022-11-15T06:30:11;41.10;;;15.20;;
74510;SDS011;62991;50.040;18.400;2022-11-15T06:33:12;41.22;;;15.82;;
74510;SDS011;62991;50.040;18.400;2022-11-15T06:36:13;37.10;;;15.00;;
74510;SDS011;62991;50.040;18.400;2022-11-15T06:39:16;44.45;;;17.55;;
74510;SDS011;62991;50.040;18.400;2022-11-15T06:42:16;109.45;;;40.15;;
74510;SDS011;62991;50.040;18.400;2022-11-15T06:45:17;79.65;;;32.42;;
74510;SDS011;62991;50.040;18.400;2022-11-15T06:48:18;50.53;;;21.67;;
74510;SDS011;62991;50.040;18.400;2022-11-15T06:51:19;35.20;;;17.23;;
74510;SDS011;62991;50.040;18.400;2022-11-15T06:54:19;49.75;;;19.92;;
74510;SDS011;62991;50.040;18.400;2022-11-15T06:57:21;47.10;;;20.30;;
74510;SDS011;62991;50.040;18.400;2022-11-15T07:00:21;43.10;;;17.40;;
74510;SDS011;62991;50.040;18.400;2022-11-15T07:03:22;44.47;;;17.48;;
74510;SDS011;62991;50.040;18.400;2022-11-15T07:06:23;43.85;;;19.38;;
74510;SDS011;62991;50.040;18.400;2022-11-15T07:09:24;48.25;;;21.05;;
74510;SDS011;62991;50.040;18.400;2022-11-15T07:12:26;62.83;;;23.45;;
74510;SDS011;62991;50.040;18.400;2022-11-15T07:15:26;64.35;;;23.75;;
74510;SDS011;62991;50.040;18.400;2022-11-15T07:18:27;52.90;;;18.80;;
74510;SDS011;62991;50.040;18.400;2022-11-15T07:21:28;55.45;;;21.02;;
74510;SDS011;62991;50.040;18.400;2022-11-15T07:24:29;55.72;;;20.50;;
74510;SDS011;62991;50.040;18.400;2022-11-15T07:27:29;53.40;;;20.65;;
74510;SDS011;62991;50.040;18.400;2022-11-15T07:30:30;55.83;;;23.65;;
74510;SDS011;62991;50.040;18.400;2022-11-15T07:33:31;65.47;;;28.08;;
74510;SDS011;62991;50.040;18.400;2022-11-15T07:36:31;62.20;;;25.13;;
74510;SDS011;62991;50.040;18.400;2022-11-15T07:39:32;52.10;;;22.75;;
74510;SDS011;62991;50.040;18.400;2022-11-15T07:42:33;62.28;;;22.80;;
74510;SDS011;62991;50.040;18.400;2022-11-15T07:45:52;69.93;;;25.63;;
74510;SDS011;62991;50.040;18.400;2022-11-15T07:48:52;74.65;;;23.63;;
74510;SDS011;62991;50.040;18.400;2022-11-15T07:51:53;47.67;;;19.35;;
74510;SDS011;62991;50.040;18.400;2022-11-15T07:54:53;67.25;;;21.00;;
74510;SDS011;62991;50.040;18.400;2022-11-15T07:58:04;55.10;;;20.33;;
74510;SDS011;62991;50.040;18.400;2022-11-15T08:01:06;53.55;;;19.35;;
74510;SDS011;62991;50.040;18.400;2022-11-15T08:04:09;42.10;;;18.10;;
74510;SDS011;62991;50.040;18.400;2022-11-15T08:07:11;48.25;;;19.70;;
74510;SDS011;62991;50.040;18.400;2022-11-15T08:10:11;45.55;;;18.10;;
74510;SDS011;62991;50.040;18.400;2022-11-15T08:13:14;38.72;;;15.38;;
74510;SDS011;62991;50.040;18.400;2022-11-15T08:16:14;39.63;;;16.85;;
74510;SDS011;62991;50.040;18.400;2022-11-15T08:19:15;42.45;;;17.23;;
74510;SDS011;62991;50.040;18.400;2022-11-15T08:22:16;35.35;;;13.82;;
74510;SDS011;62991;50.040;18.400;2022-11-15T08:25:17;33.20;;;13.52;;
74510;SDS011;62991;50.040;18.400;2022-11-15T08:28:18;31.10;;;11.50;;
74510;SDS011;62991;50.040;18.400;2022-11-15T08:31:18;27.98;;;11.98;;
74510;SDS011;62991;50.040;18.400;2022-11-15T08:34:19;33.00;;;11.90;;
74510;SDS011;62991;50.040;18.400;2022-11-15T08:37:20;28.20;;;10.23;;
74510;SDS011;62991;50.040;18.400;2022-11-15T08:40:21;32.33;;;11.30;;
74510;SDS011;62991;50.040;18.400;2022-11-15T08:43:22;30.85;;;10.73;;
74510;SDS011;62991;50.040;18.400;2022-11-15T08:46:23;25.83;;;11.48;;
74510;SDS011;62991;50.040;18.400;2022-11-15T08:49:23;27.48;;;10.65;;
74510;SDS011;62991;50.040;18.400;2022-11-15T08:52:24;14.50;;;6.88;;
74510;SDS011;62991;50.040;18.400;2022-11-15T08:55:25;25.77;;;9.00;;
74510;SDS011;62991;50.040;18.400;2022-11-15T08:58:25;23.73;;;9.85;;
74510;SDS011;62991;50.040;18.400;2022-11-15T09:01:26;25.70;;;10.00;;
74510;SDS011;62991;50.040;18.400;2022-11-15T09:04:27;36.70;;;12.77;;
74510;SDS011;62991;50.040;18.400;2022-11-15T09:07:27;31.25;;;10.85;;
74510;SDS011;62991;50.040;18.400;2022-11-15T09:10:29;25.85;;;12.00;;
74510;SDS011;62991;50.040;18.400;2022-11-15T09:13:30;26.92;;;11.65;;
74510;SDS011;62991;50.040;18.400;2022-11-15T09:16:31;27.70;;;10.93;;
74510;SDS011;62991;50.040;18.400;2022-11-15T09:19:32;28.85;;;10.95;;
74510;SDS011;62991;50.040;18.400;2022-11-15T09:22:32;35.88;;;13.45;;
74510;SDS011;62991;50.040;18.400;2022-11-15T09:25:33;38.13;;;11.85;;
74510;SDS011;62991;50.040;18.400;2022-11-15T09:28:34;30.45;;;13.40;;
74510;SDS011;62991;50.040;18.400;2022-11-15T09:31:36;20.13;;;4.88;;
74510;SDS011;62991;50.040;18.400;2022-11-15T09:34:37;18.27;;;7.93;;
74510;SDS011;62991;50.040;18.400;2022-11-15T09:37:38;22.27;;;9.30;;
74510;SDS011;62991;50.040;18.400;2022-11-15T09:40:38;28.80;;;12.38;;
74510;SDS011;62991;50.040;18.400;2022-11-15T09:50:36;20.95;;;9.52;;
74510;SDS011;62991;50.040;18.400;2022-11-15T09:56:50;33.97;;;12.70;;
74510;SDS011;62991;50.040;18.400;2022-11-15T10:03:14;30.45;;;12.52;;
74510;SDS011;62991;50.040;18.400;2022-11-15T10:06:22;28.65;;;11.75;;
74510;SDS011;62991;50.040;18.400;2022-11-15T10:09:26;28.17;;;12.18;;
74510;SDS011;62991;50.040;18.400;2022-11-15T10:12:35;26.10;;;11.40;;
74510;SDS011;62991;50.040;18.400;2022-11-15T10:15:35;22.40;;;9.30;;
74510;SDS011;62991;50.040;18.400;2022-11-15T10:25:23;21.58;;;8.57;;
74510;SDS011;62991;50.040;18.400;2022-11-15T10:28:29;28.35;;;12.13;;
74510;SDS011;62991;50.040;18.400;2022-11-15T10:31:30;21.08;;;9.15;;
74510;SDS011;62991;50.040;18.400;2022-11-15T10:34:34;21.45;;;10.07;;
74510;SDS011;62991;50.040;18.400;2022-11-15T10:37:36;25.00;;;10.50;;
74510;SDS011;62991;50.040;18.400;2022-11-15T10:40:37;17.38;;;7.80;;
74510;SDS011;62991;50.040;18.400;2022-11-15T10:43:39;27.83;;;10.05;;
74510;SDS011;62991;50.040;18.400;2022-11-15T10:46:40;15.02;;;6.05;;
74510;SDS011;62991;50.040;18.400;2022-11-15T10:49:52;19.85;;;8.88;;
74510;SDS011;62991;50.040;18.400;2022-11-15T10:52:57;24.27;;;9.77;;
74510;SDS011;62991;50.040;18.400;2022-11-15T10:56:02;27.58;;;11.45;;
74510;SDS011;62991;50.040;18.400;2022-11-15T10:59:09;26.45;;;10.48;;
74510;SDS011;62991;50.040;18.400;2022-11-15T11:02:26;25.92;;;10.85;;
74510;SDS011;62991;50.040;18.400;2022-11-15T11:08:36;30.75;;;12.27;;
74510;SDS011;62991;50.040;18.400;2022-11-15T11:11:47;12.70;;;6.38;;
74510;SDS011;62991;50.040;18.400;2022-11-15T11:14:50;31.08;;;11.52;;
74510;SDS011;62991;50.040;18.400;2022-11-15T11:20:58;31.42;;;13.38;;
74510;SDS011;62991;50.040;18.400;2022-11-15T11:24:07;28.42;;;12.18;;
74510;SDS011;62991;50.040;18.400;2022-11-15T11:27:20;31.83;;;12.60;;
74510;SDS011;62991;50.040;18.400;2022-11-15T11:30:23;16.65;;;6.97;;
74510;SDS011;62991;50.040;18.400;2022-11-15T11:33:37;31.05;;;11.02;;
74510;SDS011;62991;50.040;18.400;2022-11-15T11:40:04;25.05;;;10.77;;
74510;SDS011;62991;50.040;18.400;2022-11-15T11:46:42;33.65;;;13.18;;
74510;SDS011;62991;50.040;18.400;2022-11-15T11:52:56;36.60;;;14.77;;
74510;SDS011;62991;50.040;18.400;2022-11-15T11:55:58;25.70;;;12.27;;
74510;SDS011;62991;50.040;18.400;2022-11-15T11:59:10;26.83;;;11.40;;
74510;SDS011;62991;50.040;18.400;2022-11-15T12:02:34;24.45;;;9.10;;
74510;SDS011;62991;50.040;18.400;2022-11-15T12:05:43;34.28;;;11.90;;
74510;SDS011;62991;50.040;18.400;2022-11-15T12:09:16;28.73;;;10.88;;
74510;SDS011;62991;50.040;18.400;2022-11-15T12:12:23;33.47;;;13.00;;
74510;SDS011;62991;50.040;18.400;2022-11-15T12:15:41;31.67;;;11.80;;
74510;SDS011;62991;50.040;18.400;2022-11-15T12:19:04;21.15;;;9.15;;
74510;SDS011;62991;50.040;18.400;2022-11-15T12:22:13;29.13;;;11.30;;
74510;SDS011;62991;50.040;18.400;2022-11-15T12:25:45;29.13;;;11.80;;
74510;SDS011;62991;50.040;18.400;2022-11-15T12:28:53;31.58;;;12.77;;
74510;SDS011;62991;50.040;18.400;2022-11-15T12:31:57;37.80;;;12.27;;
74510;SDS011;62991;50.040;18.400;2022-11-15T12:35:00;36.50;;;13.75;;
74510;SDS011;62991;50.040;18.400;2022-11-15T12:38:03;37.63;;;13.65;;
74510;SDS011;62991;50.040;18.400;2022-11-15T12:41:17;35.05;;;12.73;;
74510;SDS011;62991;50.040;18.400;2022-11-15T12:47:31;48.58;;;14.95;;
74510;SDS011;62991;50.040;18.400;2022-11-15T12:51:05;32.95;;;13.73;;
74510;SDS011;62991;50.040;18.400;2022-11-15T12:53:59;33.13;;;12.65;;
74510;SDS011;62991;50.040;18.400;2022-11-15T13:03:29;26.55;;;11.23;;
74510;SDS011;62991;50.040;18.400;2022-11-15T13:06:34;27.92;;;10.90;;
74510;SDS011;62991;50.040;18.400;2022-11-15T13:18:58;108.93;;;41.28;;
74510;SDS011;62991;50.040;18.400;2022-11-15T13:22:04;57.75;;;19.75;;
74510;SDS011;62991;50.040;18.400;2022-11-15T13:28:31;88.80;;;33.50;;
74510;SDS011;62991;50.040;18.400;2022-11-15T13:31:42;94.38;;;36.88;;
74510;SDS011;62991;50.040;18.400;2022-11-15T13:34:46;74.15;;;29.55;;
74510;SDS011;62991;50.040;18.400;2022-11-15T13:37:49;45.55;;;17.88;;
74510;SDS011;62991;50.040;18.400;2022-11-15T13:40:52;77.53;;;26.38;;
74510;SDS011;62991;50.040;18.400;2022-11-15T13:43:53;65.20;;;21.13;;
74510;SDS011;62991;50.040;18.400;2022-11-15T13:47:06;58.78;;;21.45;;
74510;SDS011;62991;50.040;18.400;2022-11-15T13:50:12;83.07;;;26.00;;
74510;SDS011;62991;50.040;18.400;2022-11-15T13:53:13;91.22;;;27.75;;
74510;SDS011;62991;50.040;18.400;2022-11-15T13:56:15;105.32;;;33.80;;
74510;SDS011;62991;50.040;18.400;2022-11-15T13:59:24;110.55;;;32.60;;
74510;SDS011;62991;50.040;18.400;2022-11-15T14:02:27;64.85;;;23.70;;
74510;SDS011;62991;50.040;18.400;2022-11-15T14:05:32;88.00;;;27.30;;
74510;SDS011;62991;50.040;18.400;2022-11-15T14:08:33;59.08;;;20.65;;
74510;SDS011;62991;50.040;18.400;2022-11-15T14:11:35;60.10;;;19.50;;
74510;SDS011;62991;50.040;18.400;2022-11-15T14:14:35;68.93;;;22.40;;
74510;SDS011;62991;50.040;18.400;2022-11-15T14:17:45;52.05;;;20.92;;
74510;SDS011;62991;50.040;18.400;2022-11-15T14:20:46;49.33;;;20.30;;
74510;SDS011;62991;50.040;18.400;2022-11-15T14:23:47;45.17;;;17.38;;
74510;SDS011;62991;50.040;18.400;2022-11-15T14:26:49;44.08;;;16.83;;
74510;SDS011;62991;50.040;18.400;2022-11-15T14:29:49;46.55;;;19.50;;
74510;SDS011;62991;50.040;18.400;2022-11-15T14:32:50;44.58;;;18.27;;
74510;SDS011;62991;50.040;18.400;2022-11-15T14:35:51;39.35;;;16.80;;
74510;SDS011;62991;50.040;18.400;2022-11-15T14:38:52;43.65;;;18.02;;
74510;SDS011;62991;50.040;18.400;2022-11-15T14:41:54;53.60;;;20.52;;
74510;SDS011;62991;50.040;18.400;2022-11-15T14:44:54;64.60;;;23.13;;
74510;SDS011;62991;50.040;18.400;2022-11-15T14:47:55;62.50;;;23.35;;
74510;SDS011;62991;50.040;18.400;2022-11-15T14:50:56;56.13;;;20.77;;
74510;SDS011;62991;50.040;18.400;2022-11-15T14:53:56;55.97;;;23.10;;
74510;SDS011;62991;50.040;18.400;2022-11-15T14:56:57;56.60;;;22.77;;
74510;SDS011;62991;50.040;18.400;2022-11-15T14:59:58;149.65;;;58.15;;
74510;SDS011;62991;50.040;18.400;2022-11-15T15:02:59;183.98;;;69.00;;
74510;SDS011;62991;50.040;18.400;2022-11-15T15:06:00;158.27;;;53.60;;
74510;SDS011;62991;50.040;18.400;2022-11-15T15:09:00;107.10;;;37.35;;
74510;SDS011;62991;50.040;18.400;2022-11-15T15:12:01;110.18;;;38.80;;
74510;SDS011;62991;50.040;18.400;2022-11-15T15:15:02;124.97;;;43.13;;
74510;SDS011;62991;50.040;18.400;2022-11-15T15:18:03;80.38;;;30.80;;
74510;SDS011;62991;50.040;18.400;2022-11-15T15:21:11;114.30;;;44.35;;
74510;SDS011;62991;50.040;18.400;2022-11-15T15:24:23;103.88;;;34.55;;
74510;SDS011;62991;50.040;18.400;2022-11-15T15:27:24;72.53;;;26.27;;
74510;SDS011;62991;50.040;18.400;2022-11-15T15:30:26;80.28;;;29.52;;
74510;SDS011;62991;50.040;18.400;2022-11-15T15:36:30;92.47;;;34.42;;
74510;SDS011;62991;50.040;18.400;2022-11-15T15:39:31;104.38;;;35.88;;
74510;SDS011;62991;50.040;18.400;2022-11-15T15:42:32;168.35;;;54.53;;
74510;SDS011;62991;50.040;18.400;2022-11-15T15:45:33;132.65;;;49.33;;
74510;SDS011;62991;50.040;18.400;2022-11-15T15:48:35;93.53;;;34.20;;
74510;SDS011;62991;50.040;18.400;2022-11-15T15:51:37;100.78;;;33.78;;
74510;SDS011;62991;50.040;18.400;2022-11-15T15:54:38;150.18;;;53.08;;
74510;SDS011;62991;50.040;18.400;2022-11-15T15:57:39;157.48;;;57.38;;
74510;SDS011;62991;50.040;18.400;2022-11-15T16:00:40;140.95;;;51.70;;
74510;SDS011;62991;50.040;18.400;2022-11-15T16:03:41;194.95;;;62.58;;
74510;SDS011;62991;50.040;18.400;2022-11-15T16:06:41;91.40;;;33.65;;
74510;SDS011;62991;50.040;18.400;2022-11-15T16:09:44;69.35;;;25.83;;
74510;SDS011;62991;50.040;18.400;2022-11-15T16:13:00;74.78;;;27.00;;
74510;SDS011;62991;50.040;18.400;2022-11-15T16:16:00;107.32;;;40.03;;
74510;SDS011;62991;50.040;18.400;2022-11-15T16:19:01;157.55;;;57.83;;
74510;SDS011;62991;50.040;18.400;2022-11-15T16:22:02;196.52;;;71.53;;
74510;SDS011;62991;50.040;18.400;2022-11-15T16:25:03;123.18;;;42.75;;
74510;SDS011;62991;50.040;18.400;2022-11-15T16:28:04;177.60;;;57.35;;
74510;SDS011;62991;50.040;18.400;2022-11-15T16:31:09;126.57;;;43.28;;
74510;SDS011;62991;50.040;18.400;2022-11-15T16:34:10;191.32;;;62.13;;
74510;SDS011;62991;50.040;18.400;2022-11-15T16:37:18;110.35;;;39.85;;
74510;SDS011;62991;50.040;18.400;2022-11-15T16:40:26;95.82;;;33.53;;
74510;SDS011;62991;50.040;18.400;2022-11-15T16:43:30;102.90;;;32.92;;
74510;SDS011;62991;50.040;18.400;2022-11-15T16:46:31;141.13;;;46.92;;
74510;SDS011;62991;50.040;18.400;2022-11-15T16:49:32;141.25;;;44.50;;
74510;SDS011;62991;50.040;18.400;2022-11-15T16:52:32;103.47;;;35.92;;
74510;SDS011;62991;50.040;18.400;2022-11-15T16:55:33;105.88;;;37.97;;
74510;SDS011;62991;50.040;18.400;2022-11-15T16:58:34;116.00;;;39.38;;
74510;SDS011;62991;50.040;18.400;2022-11-15T17:01:37;123.13;;;42.80;;
74510;SDS011;62991;50.040;18.400;2022-11-15T17:04:45;113.90;;;37.72;;
74510;SDS011;62991;50.040;18.400;2022-11-15T17:07:47;105.60;;;40.53;;
74510;SDS011;62991;50.040;18.400;2022-11-15T17:10:49;113.20;;;42.00;;
74510;SDS011;62991;50.040;18.400;2022-11-15T17:13:50;91.22;;;32.80;;
74510;SDS011;62991;50.040;18.400;2022-11-15T17:16:56;67.38;;;26.85;;
74510;SDS011;62991;50.040;18.400;2022-11-15T17:19:57;62.58;;;24.05;;
74510;SDS011;62991;50.040;18.400;2022-11-15T17:22:58;85.50;;;34.13;;
74510;SDS011;62991;50.040;18.400;2022-11-15T17:26:01;106.15;;;40.30;;
74510;SDS011;62991;50.040;18.400;2022-11-15T17:29:04;106.80;;;40.40;;
74510;SDS011;62991;50.040;18.400;2022-11-15T17:32:08;105.95;;;41.25;;
74510;SDS011;62991;50.040;18.400;2022-11-15T17:35:10;123.43;;;50.50;;
74510;SDS011;62991;50.040;18.400;2022-11-15T17:38:12;158.43;;;64.38;;
74510;SDS011;62991;50.040;18.400;2022-11-15T17:41:14;154.57;;;60.67;;
74510;SDS011;62991;50.040;18.400;2022-11-15T17:44:15;169.48;;;63.25;;
74510;SDS011;62991;50.040;18.400;2022-11-15T17:47:16;135.70;;;47.58;;
74510;SDS011;62991;50.040;18.400;2022-11-15T17:50:17;84.18;;;31.88;;
74510;SDS011;62991;50.040;18.400;2022-11-15T17:53:18;70.43;;;26.65;;
74510;SDS011;62991;50.040;18.400;2022-11-15T17:56:19;67.55;;;26.88;;
74510;SDS011;62991;50.040;18.400;2022-11-15T17:59:21;91.40;;;32.33;;
74510;SDS011;62991;50.040;18.400;2022-11-15T18:02:22;76.03;;;27.65;;
74510;SDS011;62991;50.040;18.400;2022-11-15T18:05:22;60.83;;;20.63;;
74510;SDS011;62991;50.040;18.400;2022-11-15T18:08:23;50.65;;;18.60;;
74510;SDS011;62991;50.040;18.400;2022-11-15T18:14:29;43.67;;;16.88;;
74510;SDS011;62991;50.040;18.400;2022-11-15T18:17:29;52.40;;;19.83;;
74510;SDS011;62991;50.040;18.400;2022-11-15T18:20:30;46.28;;;17.63;;
74510;SDS011;62991;50.040;18.400;2022-11-15T18:23:31;41.45;;;15.02;;
74510;SDS011;62991;50.040;18.400;2022-11-15T18:26:32;46.97;;;17.45;;
74510;SDS011;62991;50.040;18.400;2022-11-15T18:29:33;46.22;;;18.65;;
74510;SDS011;62991;50.040;18.400;2022-11-15T18:32:36;47.53;;;14.18;;
74510;SDS011;62991;50.040;18.400;2022-11-15T18:35:37;47.80;;;19.40;;
74510;SDS011;62991;50.040;18.400;2022-11-15T18:38:37;51.60;;;22.25;;
74510;SDS011;62991;50.040;18.400;2022-11-15T18:41:39;52.05;;;19.27;;
74510;SDS011;62991;50.040;18.400;2022-11-15T18:44:39;70.28;;;24.40;;
74510;SDS011;62991;50.040;18.400;2022-11-15T18:47:40;86.60;;;29.52;;
74510;SDS011;62991;50.040;18.400;2022-11-15T18:50:41;75.55;;;25.35;;
74510;SDS011;62991;50.040;18.400;2022-11-15T18:53:42;70.55;;;22.75;;
74510;SDS011;62991;50.040;18.400;2022-11-15T18:56:43;65.07;;;21.67;;
74510;SDS011;62991;50.040;18.400;2022-11-15T18:59:44;61.05;;;21.23;;